Portada
METAR-TAF:

METAR-TAF

Aeroports :

Greenwood County Airport

Greenwood, Carolina del Sud, Estats Units d'Amèrica

latitud: 34-14-50N, longitud: 082-09-17W, altitud: 192 m

Observació

L'informe es va fer fa 19 minuts, a les 23:56 UTC
Vent 5 kt del Sud-Oest
Temperatura 23°C
Humitat 89%
Pressió 1017 hPa
Visibilitat: 16.1 km
Cel clar

METAR: KGRD 102356Z AUTO 23005KT 10SM CLR 23/21 A3002 RMK AO2 SLP158 60004 T02330211 10322 20233 58001

Hora: 20:15 (00:15 UTC)


TAF: manca

Observacions i pronòstics meteorològics de més de 4000 aeroports (METAR i TAF).

Les estacions disponibles són els punts grocs i vermells al mapa.

Posi el ratolí al punt desitjat per veure el nom de l'estació.

Feu clic per veure les observacions i els pronòstics meteorològics.

Per canviar el mapa: feu clic els botons verds amb una creu de color negre per apropar; al botó verd amb un guió per allunyar la imatge; o en les fletxes verdes per a mapes adjacents.


METAR-TAF: